sensor_id;sensor_type;location;lat;lon;timestamp;P1;durP1;ratioP1;P2;durP2;ratioP2
4078;SDS011;2054;47.858;11.156;2023-02-28T03:45:47;6.00;;;4.15;;
4078;SDS011;2054;47.858;11.156;2023-02-28T03:48:17;8.02;;;3.78;;
4078;SDS011;2054;47.858;11.156;2023-02-28T03:50:47;8.35;;;4.55;;
4078;SDS011;2054;47.858;11.156;2023-02-28T03:53:16;9.77;;;4.70;;
4078;SDS011;2054;47.858;11.156;2023-02-28T03:55:47;8.02;;;4.28;;
4078;SDS011;2054;47.858;11.156;2023-02-28T03:58:16;7.53;;;3.60;;
4078;SDS011;2054;47.858;11.156;2023-02-28T04:00:49;9.98;;;4.40;;
4078;SDS011;2054;47.858;11.156;2023-02-28T04:03:18;8.15;;;4.32;;
4078;SDS011;2054;47.858;11.156;2023-02-28T04:05:46;8.65;;;4.50;;
4078;SDS011;2054;47.858;11.156;2023-02-28T04:08:15;9.63;;;4.43;;
4078;SDS011;2054;47.858;11.156;2023-02-28T04:10:42;7.78;;;4.15;;
4078;SDS011;2054;47.858;11.156;2023-02-28T04:13:12;8.15;;;4.32;;
4078;SDS011;2054;47.858;11.156;2023-02-28T04:15:40;8.43;;;4.65;;
4078;SDS011;2054;47.858;11.156;2023-02-28T04:18:08;8.15;;;4.72;;
4078;SDS011;2054;47.858;11.156;2023-02-28T04:20:36;7.50;;;3.92;;
4078;SDS011;2054;47.858;11.156;2023-02-28T04:23:03;6.25;;;4.10;;
4078;SDS011;2054;47.858;11.156;2023-02-28T04:25:31;8.82;;;4.53;;
4078;SDS011;2054;47.858;11.156;2023-02-28T04:27:58;7.70;;;4.20;;
4078;SDS011;2054;47.858;11.156;2023-02-28T04:30:34;10.25;;;4.63;;
4078;SDS011;2054;47.858;11.156;2023-02-28T04:33:02;11.55;;;4.55;;
4078;SDS011;2054;47.858;11.156;2023-02-28T04:35:31;10.23;;;4.50;;
4078;SDS011;2054;47.858;11.156;2023-02-28T04:37:58;9.18;;;4.30;;
4078;SDS011;2054;47.858;11.156;2023-02-28T04:40:26;7.82;;;4.30;;
4078;SDS011;2054;47.858;11.156;2023-02-28T04:42:53;7.28;;;4.32;;
4078;SDS011;2054;47.858;11.156;2023-02-28T04:45:21;10.20;;;4.43;;
4078;SDS011;2054;47.858;11.156;2023-02-28T04:47:48;8.40;;;4.18;;
4078;SDS011;2054;47.858;11.156;2023-02-28T04:50:17;9.38;;;4.88;;
4078;SDS011;2054;47.858;11.156;2023-02-28T04:52:46;10.48;;;5.32;;
4078;SDS011;2054;47.858;11.156;2023-02-28T04:55:13;11.18;;;4.93;;
4078;SDS011;2054;47.858;11.156;2023-02-28T04:57:41;9.13;;;4.40;;
4078;SDS011;2054;47.858;11.156;2023-02-28T05:00:09;8.52;;;4.97;;
4078;SDS011;2054;47.858;11.156;2023-02-28T05:02:38;7.35;;;4.45;;
4078;SDS011;2054;47.858;11.156;2023-02-28T05:05:06;11.90;;;5.43;;
4078;SDS011;2054;47.858;11.156;2023-02-28T05:07:33;11.00;;;5.15;;
4078;SDS011;2054;47.858;11.156;2023-02-28T05:10:02;10.35;;;5.15;;
4078;SDS011;2054;47.858;11.156;2023-02-28T05:12:29;12.20;;;5.47;;
4078;SDS011;2054;47.858;11.156;2023-02-28T05:14:57;12.23;;;5.85;;
4078;SDS011;2054;47.858;11.156;2023-02-28T05:17:24;11.52;;;5.38;;
4078;SDS011;2054;47.858;11.156;2023-02-28T05:19:52;12.90;;;6.30;;
4078;SDS011;2054;47.858;11.156;2023-02-28T05:22:19;11.73;;;6.30;;
4078;SDS011;2054;47.858;11.156;2023-02-28T05:24:49;11.27;;;6.28;;
4078;SDS011;2054;47.858;11.156;2023-02-28T05:27:18;12.38;;;6.00;;
4078;SDS011;2054;47.858;11.156;2023-02-28T05:29:46;12.45;;;6.05;;
4078;SDS011;2054;47.858;11.156;2023-02-28T05:32:14;14.63;;;6.20;;
4078;SDS011;2054;47.858;11.156;2023-02-28T05:34:42;13.15;;;6.25;;
4078;SDS011;2054;47.858;11.156;2023-02-28T05:37:11;13.10;;;6.53;;
4078;SDS011;2054;47.858;11.156;2023-02-28T05:39:39;12.73;;;6.20;;
4078;SDS011;2054;47.858;11.156;2023-02-28T05:42:06;13.02;;;7.30;;
4078;SDS011;2054;47.858;11.156;2023-02-28T05:44:35;13.70;;;7.20;;
4078;SDS011;2054;47.858;11.156;2023-02-28T05:47:03;13.68;;;7.22;;
4078;SDS011;2054;47.858;11.156;2023-02-28T05:49:30;13.45;;;7.25;;
4078;SDS011;2054;47.858;11.156;2023-02-28T05:51:57;16.63;;;7.85;;
4078;SDS011;2054;47.858;11.156;2023-02-28T05:54:25;17.05;;;7.65;;
4078;SDS011;2054;47.858;11.156;2023-02-28T05:56:52;13.05;;;6.82;;
4078;SDS011;2054;47.858;11.156;2023-02-28T05:59:19;14.43;;;7.68;;
4078;SDS011;2054;47.858;11.156;2023-02-28T06:01:48;18.15;;;8.20;;
4078;SDS011;2054;47.858;11.156;2023-02-28T06:04:18;16.88;;;7.85;;
4078;SDS011;2054;47.858;11.156;2023-02-28T06:06:46;15.27;;;7.97;;
4078;SDS011;2054;47.858;11.156;2023-02-28T06:09:14;13.90;;;7.90;;
4078;SDS011;2054;47.858;11.156;2023-02-28T06:11:41;17.30;;;8.57;;
4078;SDS011;2054;47.858;11.156;2023-02-28T06:14:10;14.45;;;7.85;;
4078;SDS011;2054;47.858;11.156;2023-02-28T06:16:39;17.83;;;8.63;;
4078;SDS011;2054;47.858;11.156;2023-02-28T06:19:08;19.75;;;9.02;;
4078;SDS011;2054;47.858;11.156;2023-02-28T06:21:36;16.95;;;7.97;;
4078;SDS011;2054;47.858;11.156;2023-02-28T06:24:04;15.88;;;8.40;;
4078;SDS011;2054;47.858;11.156;2023-02-28T06:26:31;18.23;;;8.10;;
4078;SDS011;2054;47.858;11.156;2023-02-28T06:28:59;15.07;;;8.20;;
4078;SDS011;2054;47.858;11.156;2023-02-28T06:31:28;13.93;;;8.07;;
4078;SDS011;2054;47.858;11.156;2023-02-28T06:33:55;15.13;;;8.30;;
4078;SDS011;2054;47.858;11.156;2023-02-28T06:36:24;19.10;;;8.75;;
4078;SDS011;2054;47.858;11.156;2023-02-28T06:38:51;15.73;;;8.25;;
4078;SDS011;2054;47.858;11.156;2023-02-28T06:41:21;18.13;;;8.63;;
4078;SDS011;2054;47.858;11.156;2023-02-28T06:43:48;15.10;;;8.52;;
4078;SDS011;2054;47.858;11.156;2023-02-28T06:46:15;19.17;;;9.55;;
4078;SDS011;2054;47.858;11.156;2023-02-28T06:48:43;20.33;;;9.10;;
4078;SDS011;2054;47.858;11.156;2023-02-28T06:51:11;21.02;;;9.32;;
4078;SDS011;2054;47.858;11.156;2023-02-28T06:53:40;17.70;;;9.07;;
4078;SDS011;2054;47.858;11.156;2023-02-28T06:56:08;15.18;;;8.38;;
4078;SDS011;2054;47.858;11.156;2023-02-28T06:58:35;18.70;;;8.95;;
4078;SDS011;2054;47.858;11.156;2023-02-28T07:01:04;18.70;;;9.63;;
4078;SDS011;2054;47.858;11.156;2023-02-28T07:03:32;20.58;;;9.77;;
4078;SDS011;2054;47.858;11.156;2023-02-28T07:06:00;18.70;;;9.00;;
4078;SDS011;2054;47.858;11.156;2023-02-28T07:08:27;15.10;;;8.73;;
4078;SDS011;2054;47.858;11.156;2023-02-28T07:10:58;19.33;;;8.70;;
4078;SDS011;2054;47.858;11.156;2023-02-28T07:13:25;18.27;;;8.60;;
4078;SDS011;2054;47.858;11.156;2023-02-28T07:15:53;21.52;;;9.52;;
4078;SDS011;2054;47.858;11.156;2023-02-28T07:18:20;16.02;;;8.65;;
4078;SDS011;2054;47.858;11.156;2023-02-28T07:20:48;19.20;;;9.45;;
4078;SDS011;2054;47.858;11.156;2023-02-28T07:23:15;20.15;;;9.20;;
4078;SDS011;2054;47.858;11.156;2023-02-28T07:25:43;22.40;;;9.75;;
4078;SDS011;2054;47.858;11.156;2023-02-28T07:28:12;18.60;;;9.43;;
4078;SDS011;2054;47.858;11.156;2023-02-28T07:30:39;17.77;;;8.73;;
4078;SDS011;2054;47.858;11.156;2023-02-28T07:33:07;17.00;;;8.75;;
4078;SDS011;2054;47.858;11.156;2023-02-28T07:35:34;19.00;;;9.60;;
4078;SDS011;2054;47.858;11.156;2023-02-28T07:38:01;20.15;;;9.70;;
4078;SDS011;2054;47.858;11.156;2023-02-28T07:40:29;16.73;;;7.40;;
4078;SDS011;2054;47.858;11.156;2023-02-28T07:42:56;16.42;;;8.90;;
4078;SDS011;2054;47.858;11.156;2023-02-28T07:45:27;16.83;;;9.13;;
4078;SDS011;2054;47.858;11.156;2023-02-28T07:47:55;20.08;;;9.45;;
4078;SDS011;2054;47.858;11.156;2023-02-28T07:50:22;17.08;;;9.20;;
4078;SDS011;2054;47.858;11.156;2023-02-28T07:52:50;19.10;;;9.15;;
4078;SDS011;2054;47.858;11.156;2023-02-28T07:55:17;16.45;;;9.10;;
4078;SDS011;2054;47.858;11.156;2023-02-28T07:57:44;17.70;;;9.27;;
4078;SDS011;2054;47.858;11.156;2023-02-28T08:00:12;17.73;;;9.68;;
4078;SDS011;2054;47.858;11.156;2023-02-28T08:02:40;16.55;;;9.63;;
4078;SDS011;2054;47.858;11.156;2023-02-28T08:05:08;16.52;;;8.77;;
4078;SDS011;2054;47.858;11.156;2023-02-28T08:07:36;16.63;;;9.07;;
4078;SDS011;2054;47.858;11.156;2023-02-28T08:10:03;16.77;;;9.15;;
4078;SDS011;2054;47.858;11.156;2023-02-28T08:12:31;23.90;;;9.85;;
4078;SDS011;2054;47.858;11.156;2023-02-28T08:14:59;17.58;;;9.18;;
4078;SDS011;2054;47.858;11.156;2023-02-28T08:17:26;18.02;;;9.52;;
4078;SDS011;2054;47.858;11.156;2023-02-28T08:19:55;17.60;;;9.73;;
4078;SDS011;2054;47.858;11.156;2023-02-28T08:22:22;19.27;;;9.18;;
4078;SDS011;2054;47.858;11.156;2023-02-28T08:24:49;16.98;;;9.20;;
4078;SDS011;2054;47.858;11.156;2023-02-28T08:27:17;16.42;;;9.48;;
4078;SDS011;2054;47.858;11.156;2023-02-28T08:29:44;16.90;;;8.88;;
4078;SDS011;2054;47.858;11.156;2023-02-28T08:32:11;17.20;;;9.05;;
4078;SDS011;2054;47.858;11.156;2023-02-28T08:34:39;19.08;;;8.98;;
4078;SDS011;2054;47.858;11.156;2023-02-28T08:37:07;16.70;;;9.20;;
4078;SDS011;2054;47.858;11.156;2023-02-28T08:39:35;16.85;;;9.07;;
4078;SDS011;2054;47.858;11.156;2023-02-28T08:42:02;19.33;;;9.35;;
4078;SDS011;2054;47.858;11.156;2023-02-28T08:44:30;19.40;;;10.35;;
4078;SDS011;2054;47.858;11.156;2023-02-28T08:46:57;19.10;;;9.35;;
4078;SDS011;2054;47.858;11.156;2023-02-28T08:49:25;16.80;;;9.35;;
4078;SDS011;2054;47.858;11.156;2023-02-28T08:51:52;19.00;;;10.15;;
4078;SDS011;2054;47.858;11.156;2023-02-28T08:54:21;17.10;;;9.40;;
4078;SDS011;2054;47.858;11.156;2023-02-28T08:56:49;17.70;;;9.50;;
4078;SDS011;2054;47.858;11.156;2023-02-28T08:59:16;18.00;;;9.10;;
4078;SDS011;2054;47.858;11.156;2023-02-28T09:01:43;19.38;;;10.13;;
4078;SDS011;2054;47.858;11.156;2023-02-28T09:04:11;17.27;;;10.13;;
4078;SDS011;2054;47.858;11.156;2023-02-28T09:06:38;19.95;;;10.35;;
4078;SDS011;2054;47.858;11.156;2023-02-28T09:09:05;20.08;;;10.02;;
4078;SDS011;2054;47.858;11.156;2023-02-28T09:11:36;18.33;;;9.75;;
4078;SDS011;2054;47.858;11.156;2023-02-28T09:14:03;19.88;;;9.85;;
4078;SDS011;2054;47.858;11.156;2023-02-28T09:16:31;15.80;;;9.32;;
4078;SDS011;2054;47.858;11.156;2023-02-28T09:18:58;18.50;;;10.30;;
4078;SDS011;2054;47.858;11.156;2023-02-28T09:21:26;20.20;;;9.65;;
4078;SDS011;2054;47.858;11.156;2023-02-28T09:23:53;19.85;;;10.45;;
4078;SDS011;2054;47.858;11.156;2023-02-28T09:26:21;18.08;;;9.95;;
4078;SDS011;2054;47.858;11.156;2023-02-28T09:28:50;17.45;;;9.73;;
4078;SDS011;2054;47.858;11.156;2023-02-28T09:31:19;17.73;;;9.95;;
4078;SDS011;2054;47.858;11.156;2023-02-28T09:33:47;19.25;;;9.43;;
4078;SDS011;2054;47.858;11.156;2023-02-28T09:36:16;20.00;;;10.18;;
4078;SDS011;2054;47.858;11.156;2023-02-28T09:38:44;21.42;;;10.30;;
4078;SDS011;2054;47.858;11.156;2023-02-28T09:41:13;17.02;;;9.43;;
4078;SDS011;2054;47.858;11.156;2023-02-28T09:43:43;17.67;;;9.80;;
4078;SDS011;2054;47.858;11.156;2023-02-28T09:46:14;17.88;;;9.63;;
4078;SDS011;2054;47.858;11.156;2023-02-28T09:48:45;17.77;;;8.95;;
4078;SDS011;2054;47.858;11.156;2023-02-28T09:51:15;21.02;;;10.75;;
4078;SDS011;2054;47.858;11.156;2023-02-28T09:53:50;15.48;;;9.75;;
4078;SDS011;2054;47.858;11.156;2023-02-28T09:56:19;20.48;;;10.07;;
4078;SDS011;2054;47.858;11.156;2023-02-28T09:58:51;16.95;;;9.50;;
4078;SDS011;2054;47.858;11.156;2023-02-28T10:01:23;20.02;;;10.02;;
4078;SDS011;2054;47.858;11.156;2023-02-28T10:03:54;21.50;;;10.88;;
4078;SDS011;2054;47.858;11.156;2023-02-28T10:06:25;20.85;;;10.57;;
4078;SDS011;2054;47.858;11.156;2023-02-28T10:08:55;19.52;;;9.32;;
4078;SDS011;2054;47.858;11.156;2023-02-28T10:11:23;15.00;;;7.63;;
4078;SDS011;2054;47.858;11.156;2023-02-28T10:13:52;17.25;;;9.18;;
4078;SDS011;2054;47.858;11.156;2023-02-28T10:16:27;17.02;;;10.10;;
4078;SDS011;2054;47.858;11.156;2023-02-28T10:18:56;19.27;;;10.23;;
4078;SDS011;2054;47.858;11.156;2023-02-28T10:21:26;20.23;;;10.68;;
4078;SDS011;2054;47.858;11.156;2023-02-28T10:23:56;18.92;;;10.00;;
4078;SDS011;2054;47.858;11.156;2023-02-28T10:26:40;18.58;;;9.35;;
4078;SDS011;2054;47.858;11.156;2023-02-28T10:29:10;18.80;;;10.27;;
4078;SDS011;2054;47.858;11.156;2023-02-28T10:31:39;16.95;;;10.13;;
4078;SDS011;2054;47.858;11.156;2023-02-28T10:34:07;19.23;;;10.40;;
4078;SDS011;2054;47.858;11.156;2023-02-28T10:36:34;20.08;;;9.75;;
4078;SDS011;2054;47.858;11.156;2023-02-28T10:39:02;18.73;;;10.25;;
4078;SDS011;2054;47.858;11.156;2023-02-28T10:41:49;18.80;;;10.55;;
4078;SDS011;2054;47.858;11.156;2023-02-28T10:44:17;19.48;;;10.32;;
4078;SDS011;2054;47.858;11.156;2023-02-28T10:46:48;19.90;;;10.55;;
4078;SDS011;2054;47.858;11.156;2023-02-28T10:49:17;15.10;;;9.32;;
4078;SDS011;2054;47.858;11.156;2023-02-28T10:51:44;18.65;;;10.57;;
4078;SDS011;2054;47.858;11.156;2023-02-28T10:54:16;20.65;;;10.00;;
4078;SDS011;2054;47.858;11.156;2023-02-28T10:56:43;18.92;;;9.95;;
4078;SDS011;2054;47.858;11.156;2023-02-28T10:59:27;19.58;;;10.00;;
4078;SDS011;2054;47.858;11.156;2023-02-28T11:01:58;17.75;;;9.75;;
4078;SDS011;2054;47.858;11.156;2023-02-28T11:04:32;15.90;;;9.60;;
4078;SDS011;2054;47.858;11.156;2023-02-28T11:07:05;17.95;;;9.68;;
4078;SDS011;2054;47.858;11.156;2023-02-28T11:09:33;20.20;;;10.85;;
4078;SDS011;2054;47.858;11.156;2023-02-28T11:12:04;21.05;;;10.63;;
4078;SDS011;2054;47.858;11.156;2023-02-28T11:14:47;20.60;;;10.80;;
4078;SDS011;2054;47.858;11.156;2023-02-28T11:17:18;17.15;;;9.80;;
4078;SDS011;2054;47.858;11.156;2023-02-28T11:19:47;18.40;;;10.20;;
4078;SDS011;2054;47.858;11.156;2023-02-28T11:22:20;17.58;;;10.00;;
4078;SDS011;2054;47.858;11.156;2023-02-28T11:24:55;20.40;;;10.40;;
4078;SDS011;2054;47.858;11.156;2023-02-28T11:27:39;19.17;;;10.10;;
4078;SDS011;2054;47.858;11.156;2023-02-28T11:30:22;19.15;;;9.52;;
4078;SDS011;2054;47.858;11.156;2023-02-28T11:32:51;17.63;;;9.20;;
4078;SDS011;2054;47.858;11.156;2023-02-28T11:35:21;17.48;;;9.85;;
4078;SDS011;2054;47.858;11.156;2023-02-28T11:37:50;17.77;;;10.43;;
4078;SDS011;2054;47.858;11.156;2023-02-28T11:40:18;17.60;;;9.57;;
4078;SDS011;2054;47.858;11.156;2023-02-28T11:42:50;22.60;;;10.38;;
4078;SDS011;2054;47.858;11.156;2023-02-28T11:45:35;16.40;;;8.65;;
4078;SDS011;2054;47.858;11.156;2023-02-28T11:48:08;16.42;;;9.40;;
4078;SDS011;2054;47.858;11.156;2023-02-28T11:50:42;18.95;;;10.45;;
4078;SDS011;2054;47.858;11.156;2023-02-28T11:53:14;19.08;;;9.90;;
4078;SDS011;2054;47.858;11.156;2023-02-28T11:55:44;21.58;;;10.65;;
4078;SDS011;2054;47.858;11.156;2023-02-28T11:58:27;16.05;;;9.55;;
4078;SDS011;2054;47.858;11.156;2023-02-28T12:01:02;20.10;;;10.13;;
4078;SDS011;2054;47.858;11.156;2023-02-28T12:03:34;19.48;;;9.70;;
4078;SDS011;2054;47.858;11.156;2023-02-28T12:06:09;16.23;;;9.63;;
4078;SDS011;2054;47.858;11.156;2023-02-28T12:08:43;18.40;;;10.07;;
4078;SDS011;2054;47.858;11.156;2023-02-28T12:11:12;25.23;;;13.13;;
4078;SDS011;2054;47.858;11.156;2023-02-28T12:13:46;18.80;;;10.82;;
4078;SDS011;2054;47.858;11.156;2023-02-28T12:16:18;20.10;;;10.75;;
4078;SDS011;2054;47.858;11.156;2023-02-28T12:21:56;19.05;;;10.35;;
4078;SDS011;2054;47.858;11.156;2023-02-28T12:24:37;18.52;;;10.65;;
4078;SDS011;2054;47.858;11.156;2023-02-28T12:27:09;19.27;;;9.85;;
4078;SDS011;2054;47.858;11.156;2023-02-28T12:29:40;19.58;;;10.65;;
4078;SDS011;2054;47.858;11.156;2023-02-28T12:32:09;21.30;;;11.20;;
4078;SDS011;2054;47.858;11.156;2023-02-28T12:34:39;20.08;;;10.43;;
4078;SDS011;2054;47.858;11.156;2023-02-28T12:37:12;25.88;;;12.18;;
4078;SDS011;2054;47.858;11.156;2023-02-28T12:39:43;17.45;;;10.15;;
4078;SDS011;2054;47.858;11.156;2023-02-28T12:42:11;15.90;;;9.55;;
4078;SDS011;2054;47.858;11.156;2023-02-28T12:44:42;17.85;;;9.80;;
4078;SDS011;2054;47.858;11.156;2023-02-28T12:47:13;15.43;;;9.20;;
4078;SDS011;2054;47.858;11.156;2023-02-28T12:49:42;15.68;;;9.30;;
4078;SDS011;2054;47.858;11.156;2023-02-28T12:52:13;22.73;;;10.18;;
4078;SDS011;2054;47.858;11.156;2023-02-28T12:54:46;19.08;;;9.90;;
4078;SDS011;2054;47.858;11.156;2023-02-28T12:57:18;16.02;;;9.85;;
4078;SDS011;2054;47.858;11.156;2023-02-28T12:59:50;20.88;;;9.75;;
4078;SDS011;2054;47.858;11.156;2023-02-28T13:02:22;17.90;;;9.98;;
4078;SDS011;2054;47.858;11.156;2023-02-28T13:04:54;17.27;;;10.05;;
4078;SDS011;2054;47.858;11.156;2023-02-28T13:10:14;18.33;;;10.68;;
4078;SDS011;2054;47.858;11.156;2023-02-28T13:12:47;20.58;;;10.60;;
4078;SDS011;2054;47.858;11.156;2023-02-28T13:15:16;17.90;;;10.55;;
4078;SDS011;2054;47.858;11.156;2023-02-28T13:17:48;17.23;;;9.70;;
4078;SDS011;2054;47.858;11.156;2023-02-28T13:20:17;17.40;;;10.30;;
4078;SDS011;2054;47.858;11.156;2023-02-28T13:22:45;18.88;;;10.93;;
4078;SDS011;2054;47.858;11.156;2023-02-28T13:28:08;18.17;;;9.88;;
4078;SDS011;2054;47.858;11.156;2023-02-28T13:33:25;16.70;;;9.77;;
4078;SDS011;2054;47.858;11.156;2023-02-28T13:36:09;19.85;;;10.07;;
4078;SDS011;2054;47.858;11.156;2023-02-28T13:38:38;18.52;;;10.02;;
4078;SDS011;2054;47.858;11.156;2023-02-28T13:44:03;17.30;;;9.30;;
4078;SDS011;2054;47.858;11.156;2023-02-28T13:46:31;15.88;;;9.00;;
4078;SDS011;2054;47.858;11.156;2023-02-28T13:51:42;17.92;;;9.57;;
4078;SDS011;2054;47.858;11.156;2023-02-28T13:54:15;14.05;;;8.85;;
4078;SDS011;2054;47.858;11.156;2023-02-28T13:56:45;17.63;;;9.48;;
4078;SDS011;2054;47.858;11.156;2023-02-28T13:59:19;15.25;;;9.00;;
4078;SDS011;2054;47.858;11.156;2023-02-28T14:01:51;17.90;;;9.57;;
4078;SDS011;2054;47.858;11.156;2023-02-28T14:04:35;16.35;;;9.55;;
4078;SDS011;2054;47.858;11.156;2023-02-28T14:07:06;16.30;;;9.35;;
4078;SDS011;2054;47.858;11.156;2023-02-28T14:09:35;19.02;;;9.57;;
4078;SDS011;2054;47.858;11.156;2023-02-28T14:14:55;16.27;;;8.75;;
4078;SDS011;2054;47.858;11.156;2023-02-28T14:17:23;18.73;;;9.43;;
4078;SDS011;2054;47.858;11.156;2023-02-28T14:19:51;15.13;;;9.02;;
4078;SDS011;2054;47.858;11.156;2023-02-28T14:22:22;15.18;;;8.98;;
4078;SDS011;2054;47.858;11.156;2023-02-28T14:25:00;18.33;;;9.93;;
4078;SDS011;2054;47.858;11.156;2023-02-28T14:27:38;16.60;;;9.68;;
4078;SDS011;2054;47.858;11.156;2023-02-28T14:30:36;18.15;;;9.38;;
4078;SDS011;2054;47.858;11.156;2023-02-28T14:36:07;19.58;;;10.10;;
4078;SDS011;2054;47.858;11.156;2023-02-28T14:38:36;17.55;;;9.30;;
4078;SDS011;2054;47.858;11.156;2023-02-28T14:41:05;19.92;;;9.50;;
4078;SDS011;2054;47.858;11.156;2023-02-28T14:43:33;18.15;;;9.90;;
4078;SDS011;2054;47.858;11.156;2023-02-28T14:46:02;17.02;;;10.20;;
4078;SDS011;2054;47.858;11.156;2023-02-28T14:48:31;18.30;;;10.43;;
4078;SDS011;2054;47.858;11.156;2023-02-28T14:50:59;16.90;;;10.23;;
4078;SDS011;2054;47.858;11.156;2023-02-28T14:53:28;17.67;;;9.50;;
4078;SDS011;2054;47.858;11.156;2023-02-28T14:55:56;17.00;;;10.05;;
4078;SDS011;2054;47.858;11.156;2023-02-28T14:58:26;21.02;;;10.77;;
4078;SDS011;2054;47.858;11.156;2023-02-28T15:00:55;18.25;;;10.20;;
4078;SDS011;2054;47.858;11.156;2023-02-28T15:03:24;19.33;;;10.15;;
4078;SDS011;2054;47.858;11.156;2023-02-28T15:05:58;19.48;;;9.98;;
4078;SDS011;2054;47.858;11.156;2023-02-28T15:08:25;17.77;;;10.38;;
4078;SDS011;2054;47.858;11.156;2023-02-28T15:10:54;16.63;;;9.73;;
4078;SDS011;2054;47.858;11.156;2023-02-28T15:13:22;19.55;;;10.38;;
4078;SDS011;2054;47.858;11.156;2023-02-28T15:15:51;18.13;;;9.98;;
4078;SDS011;2054;47.858;11.156;2023-02-28T15:18:25;18.55;;;9.85;;
4078;SDS011;2054;47.858;11.156;2023-02-28T15:20:53;18.23;;;10.35;;
4078;SDS011;2054;47.858;11.156;2023-02-28T15:23:20;16.85;;;9.55;;
4078;SDS011;2054;47.858;11.156;2023-02-28T15:25:48;19.30;;;10.30;;
4078;SDS011;2054;47.858;11.156;2023-02-28T15:28:18;17.20;;;10.00;;
4078;SDS011;2054;47.858;11.156;2023-02-28T15:30:54;20.35;;;10.05;;
4078;SDS011;2054;47.858;11.156;2023-02-28T15:33:23;22.88;;;11.07;;
4078;SDS011;2054;47.858;11.156;2023-02-28T15:36:02;18.05;;;11.07;;
4078;SDS011;2054;47.858;11.156;2023-02-28T15:38:29;19.30;;;11.05;;
4078;SDS011;2054;47.858;11.156;2023-02-28T15:41:01;16.80;;;10.38;;
4078;SDS011;2054;47.858;11.156;2023-02-28T15:43:33;16.17;;;9.90;;
4078;SDS011;2054;47.858;11.156;2023-02-28T15:46:02;18.20;;;10.45;;
4078;SDS011;2054;47.858;11.156;2023-02-28T15:48:31;19.60;;;10.73;;
4078;SDS011;2054;47.858;11.156;2023-02-28T15:51:04;18.95;;;10.82;;
4078;SDS011;2054;47.858;11.156;2023-02-28T15:53:34;18.33;;;10.75;;
4078;SDS011;2054;47.858;11.156;2023-02-28T15:56:03;17.63;;;10.40;;
4078;SDS011;2054;47.858;11.156;2023-02-28T15:58:34;17.98;;;10.05;;
4078;SDS011;2054;47.858;11.156;2023-02-28T16:01:07;18.00;;;10.70;;
4078;SDS011;2054;47.858;11.156;2023-02-28T16:03:38;17.80;;;10.43;;
4078;SDS011;2054;47.858;11.156;2023-02-28T16:08:52;21.60;;;11.63;;
4078;SDS011;2054;47.858;11.156;2023-02-28T16:11:20;21.15;;;11.48;;
4078;SDS011;2054;47.858;11.156;2023-02-28T16:13:47;20.83;;;10.80;;
4078;SDS011;2054;47.858;11.156;2023-02-28T16:16:15;23.27;;;11.48;;
4078;SDS011;2054;47.858;11.156;2023-02-28T16:18:43;19.13;;;10.57;;
4078;SDS011;2054;47.858;11.156;2023-02-28T16:21:10;19.92;;;11.25;;
4078;SDS011;2054;47.858;11.156;2023-02-28T16:23:37;20.70;;;11.05;;
4078;SDS011;2054;47.858;11.156;2023-02-28T16:26:06;18.10;;;10.25;;
4078;SDS011;2054;47.858;11.156;2023-02-28T16:28:34;23.23;;;11.93;;
4078;SDS011;2054;47.858;11.156;2023-02-28T16:31:02;21.02;;;11.30;;
4078;SDS011;2054;47.858;11.156;2023-02-28T16:33:31;22.73;;;11.73;;
4078;SDS011;2054;47.858;11.156;2023-02-28T16:35:59;20.83;;;11.38;;
4078;SDS011;2054;47.858;11.156;2023-02-28T16:38:28;24.02;;;11.10;;
4078;SDS011;2054;47.858;11.156;2023-02-28T16:40:56;19.33;;;11.00;;
4078;SDS011;2054;47.858;11.156;2023-02-28T16:43:26;23.23;;;11.70;;
4078;SDS011;2054;47.858;11.156;2023-02-28T16:45:54;18.25;;;10.60;;
4078;SDS011;2054;47.858;11.156;2023-02-28T16:48:21;20.70;;;10.27;;
4078;SDS011;2054;47.858;11.156;2023-02-28T16:50:49;20.98;;;11.02;;
4078;SDS011;2054;47.858;11.156;2023-02-28T16:53:16;21.92;;;11.50;;
4078;SDS011;2054;47.858;11.156;2023-02-28T16:55:43;23.13;;;10.77;;
4078;SDS011;2054;47.858;11.156;2023-02-28T16:58:13;24.90;;;11.85;;
4078;SDS011;2054;47.858;11.156;2023-02-28T17:00:42;29.95;;;12.40;;
4078;SDS011;2054;47.858;11.156;2023-02-28T17:03:11;22.70;;;11.55;;
4078;SDS011;2054;47.858;11.156;2023-02-28T17:05:46;25.77;;;13.23;;
4078;SDS011;2054;47.858;11.156;2023-02-28T17:08:13;27.00;;;12.77;;
4078;SDS011;2054;47.858;11.156;2023-02-28T17:10:41;36.42;;;11.98;;
4078;SDS011;2054;47.858;11.156;2023-02-28T17:13:08;23.77;;;12.18;;
4078;SDS011;2054;47.858;11.156;2023-02-28T17:15:36;29.55;;;12.43;;
4078;SDS011;2054;47.858;11.156;2023-02-28T17:18:05;27.65;;;12.82;;
4078;SDS011;2054;47.858;11.156;2023-02-28T17:20:33;31.58;;;14.00;;
4078;SDS011;2054;47.858;11.156;2023-02-28T17:23:01;30.30;;;14.65;;
4078;SDS011;2054;47.858;11.156;2023-02-28T17:25:28;31.58;;;14.23;;
4078;SDS011;2054;47.858;11.156;2023-02-28T17:27:55;28.20;;;13.77;;
4078;SDS011;2054;47.858;11.156;2023-02-28T17:30:23;31.08;;;15.07;;
4078;SDS011;2054;47.858;11.156;2023-02-28T17:32:52;26.83;;;14.85;;
4078;SDS011;2054;47.858;11.156;2023-02-28T17:35:21;32.75;;;15.02;;
4078;SDS011;2054;47.858;11.156;2023-02-28T17:37:48;31.77;;;14.98;;
4078;SDS011;2054;47.858;11.156;2023-02-28T17:40:16;27.48;;;13.98;;
4078;SDS011;2054;47.858;11.156;2023-02-28T17:42:44;27.42;;;13.45;;
4078;SDS011;2054;47.858;11.156;2023-02-28T17:45:12;28.58;;;14.02;;
4078;SDS011;2054;47.858;11.156;2023-02-28T17:47:40;31.05;;;13.90;;
4078;SDS011;2054;47.858;11.156;2023-02-28T17:50:11;32.45;;;14.15;;
4078;SDS011;2054;47.858;11.156;2023-02-28T17:52:41;29.48;;;13.77;;
4078;SDS011;2054;47.858;11.156;2023-02-28T17:55:09;30.67;;;13.07;;
4078;SDS011;2054;47.858;11.156;2023-02-28T17:57:36;27.75;;;13.55;;
4078;SDS011;2054;47.858;11.156;2023-02-28T18:00:05;30.25;;;13.88;;
4078;SDS011;2054;47.858;11.156;2023-02-28T18:02:34;32.15;;;15.43;;
4078;SDS011;2054;47.858;11.156;2023-02-28T18:05:01;40.20;;;17.40;;
4078;SDS011;2054;47.858;11.156;2023-02-28T18:07:30;45.95;;;18.50;;
4078;SDS011;2054;47.858;11.156;2023-02-28T18:09:59;40.85;;;19.13;;
4078;SDS011;2054;47.858;11.156;2023-02-28T18:12:28;38.03;;;18.05;;
4078;SDS011;2054;47.858;11.156;2023-02-28T18:14:56;37.42;;;18.30;;
4078;SDS011;2054;47.858;11.156;2023-02-28T18:17:24;35.72;;;17.58;;
4078;SDS011;2054;47.858;11.156;2023-02-28T18:19:51;40.90;;;18.73;;
4078;SDS011;2054;47.858;11.156;2023-02-28T18:22:19;41.03;;;19.23;;
4078;SDS011;2054;47.858;11.156;2023-02-28T18:24:48;41.92;;;18.42;;
4078;SDS011;2054;47.858;11.156;2023-02-28T18:27:17;39.00;;;18.83;;
4078;SDS011;2054;47.858;11.156;2023-02-28T18:29:44;42.25;;;18.25;;
4078;SDS011;2054;47.858;11.156;2023-02-28T18:32:11;36.67;;;17.48;;
4078;SDS011;2054;47.858;11.156;2023-02-28T18:34:40;40.45;;;18.17;;
4078;SDS011;2054;47.858;11.156;2023-02-28T18:37:07;36.10;;;17.85;;
4078;SDS011;2054;47.858;11.156;2023-02-28T18:39:36;35.03;;;16.38;;
4078;SDS011;2054;47.858;11.156;2023-02-28T18:42:03;31.42;;;15.65;;
4078;SDS011;2054;47.858;11.156;2023-02-28T18:44:35;33.58;;;15.75;;
4078;SDS011;2054;47.858;11.156;2023-02-28T18:47:02;37.45;;;15.90;;
4078;SDS011;2054;47.858;11.156;2023-02-28T18:49:30;33.85;;;15.27;;
4078;SDS011;2054;47.858;11.156;2023-02-28T18:51:59;33.13;;;15.60;;
4078;SDS011;2054;47.858;11.156;2023-02-28T18:54:26;33.50;;;15.13;;
4078;SDS011;2054;47.858;11.156;2023-02-28T18:56:54;27.33;;;14.35;;
4078;SDS011;2054;47.858;11.156;2023-02-28T18:59:21;27.73;;;14.05;;
4078;SDS011;2054;47.858;11.156;2023-02-28T19:01:50;31.25;;;14.32;;
4078;SDS011;2054;47.858;11.156;2023-02-28T19:04:17;27.30;;;12.70;;
4078;SDS011;2054;47.858;11.156;2023-02-28T19:06:44;28.67;;;13.63;;